createdAt,value
2019-05-14T00:01:46.991Z,2.43
2019-05-14T00:04:15.535Z,2.33
2019-05-14T00:06:43.963Z,2.47
2019-05-14T00:09:12.424Z,2.63
2019-05-14T00:11:42.139Z,2.50
2019-05-14T00:14:11.644Z,2.70
2019-05-14T00:16:42.450Z,2.50
2019-05-14T00:19:11.334Z,2.50
2019-05-14T00:21:42.094Z,2.43
2019-05-14T00:24:11.342Z,2.40
2019-05-14T00:26:42.296Z,2.73
2019-05-14T00:29:11.453Z,2.20
2019-05-14T00:31:42.458Z,2.53
2019-05-14T00:34:11.150Z,2.20
2019-05-14T00:36:41.734Z,2.30
2019-05-14T00:39:11.227Z,2.37
2019-05-14T00:41:41.893Z,2.50
2019-05-14T00:44:10.027Z,2.20
2019-05-14T00:46:38.490Z,2.87
2019-05-14T00:49:06.987Z,2.10
2019-05-14T00:51:35.519Z,1.70
2019-05-14T00:54:04.028Z,1.90
2019-05-14T00:56:32.460Z,2.30
2019-05-14T00:59:01.418Z,2.17
2019-05-14T01:01:31.803Z,2.07
2019-05-14T01:04:01.250Z,2.07
2019-05-14T01:06:31.504Z,2.37
2019-05-14T01:09:01.293Z,2.30
2019-05-14T01:11:31.462Z,2.23
2019-05-14T01:14:01.738Z,2.30
2019-05-14T01:16:31.799Z,2.40
2019-05-14T01:19:02.094Z,2.57
2019-05-14T01:21:31.186Z,2.03
2019-05-14T01:24:01.865Z,2.20
2019-05-14T01:26:31.107Z,2.20
2019-05-14T01:29:01.412Z,2.00
2019-05-14T01:31:31.449Z,2.40
2019-05-14T01:34:02.118Z,2.10
2019-05-14T01:36:32.031Z,2.30
2019-05-14T01:39:01.782Z,1.90
2019-05-14T01:41:31.697Z,2.30
2019-05-14T01:44:01.733Z,2.07
2019-05-14T01:46:31.649Z,2.30
2019-05-14T01:49:01.543Z,2.30
2019-05-14T01:51:31.561Z,2.20
2019-05-14T01:54:01.411Z,2.43
2019-05-14T01:56:31.904Z,2.30
2019-05-14T01:59:01.701Z,2.03
2019-05-14T02:01:31.560Z,1.93
2019-05-14T02:04:02.234Z,2.37
2019-05-14T02:06:31.815Z,1.90
2019-05-14T02:09:02.048Z,2.20
2019-05-14T02:11:32.018Z,1.97
2019-05-14T02:14:02.443Z,1.70
2019-05-14T02:16:31.522Z,2.00
2019-05-14T02:19:01.368Z,2.10
2019-05-14T02:21:31.738Z,2.60
2019-05-14T02:24:02.152Z,2.60
2019-05-14T02:26:31.561Z,1.70
2019-05-14T02:29:01.984Z,2.00
2019-05-14T02:31:30.709Z,2.60
2019-05-14T02:33:59.335Z,2.23
2019-05-14T02:36:30.851Z,2.07
2019-05-14T02:39:00.483Z,2.10
2019-05-14T02:41:29.939Z,2.40
2019-05-14T02:43:59.372Z,2.30
2019-05-14T02:46:29.563Z,2.13
2019-05-14T02:48:59.524Z,2.20
2019-05-14T02:51:29.965Z,2.20
2019-05-14T02:53:59.250Z,2.57
2019-05-14T02:56:29.632Z,2.27
2019-05-14T02:59:00.434Z,2.47
2019-05-14T03:01:30.124Z,2.60
2019-05-14T03:03:59.866Z,2.43
2019-05-14T03:06:29.272Z,2.43
2019-05-14T03:08:59.987Z,2.77
2019-05-14T03:11:29.654Z,2.47
2019-05-14T03:13:59.824Z,2.67
2019-05-14T03:16:32.426Z,2.07
2019-05-14T03:18:59.691Z,2.47
2019-05-14T03:21:30.384Z,2.47
2019-05-14T03:24:00.794Z,2.30
2019-05-14T03:26:29.712Z,2.53
2019-05-14T03:29:00.049Z,2.33
2019-05-14T03:31:33.049Z,2.67
2019-05-14T03:34:02.961Z,2.33
2019-05-14T03:36:34.734Z,2.57
2019-05-14T03:38:59.585Z,2.70
2019-05-14T03:41:30.630Z,2.40
2019-05-14T03:44:00.031Z,2.60
2019-05-14T03:46:44.200Z,2.80
2019-05-14T03:49:00.082Z,2.80
2019-05-14T03:51:29.741Z,3.10
2019-05-14T03:54:06.513Z,2.67
2019-05-14T03:56:29.921Z,2.90
2019-05-14T03:58:59.928Z,2.70
2019-05-14T04:01:29.828Z,3.00
2019-05-14T04:03:59.434Z,3.03
2019-05-14T04:06:30.389Z,3.13
2019-05-14T04:09:00.875Z,2.83
2019-05-14T04:11:31.297Z,3.00
2019-05-14T04:14:03.229Z,3.20
2019-05-14T04:16:33.974Z,3.37
2019-05-14T04:19:02.874Z,2.60
2019-05-14T04:21:32.632Z,3.40
2019-05-14T04:24:03.604Z,3.43
2019-05-14T04:26:53.371Z,3.47
2019-05-14T04:29:09.876Z,3.40
2019-05-14T04:31:39.807Z,4.07
2019-05-14T04:34:10.751Z,3.27
2019-05-14T04:36:39.349Z,3.60
2019-05-14T04:39:09.545Z,3.90
2019-05-14T04:41:39.349Z,3.50
2019-05-14T04:44:09.746Z,3.80
2019-05-14T04:46:39.499Z,3.83
2019-05-14T04:49:09.587Z,4.20
2019-05-14T04:51:39.618Z,3.50
2019-05-14T04:54:09.683Z,3.63
2019-05-14T04:56:39.792Z,5.00
2019-05-14T04:59:10.340Z,4.07
2019-05-14T05:01:40.117Z,4.73
2019-05-14T05:04:09.658Z,4.30
2019-05-14T05:06:39.647Z,3.80
2019-05-14T05:09:09.591Z,4.30
2019-05-14T05:11:39.490Z,4.40
2019-05-14T05:14:09.011Z,4.43
2019-05-14T05:16:39.108Z,4.20
2019-05-14T05:19:10.371Z,4.27
2019-05-14T05:21:38.898Z,3.90
2019-05-14T05:24:09.231Z,4.47
2019-05-14T05:26:39.200Z,4.13
2019-05-14T05:29:10.392Z,4.37
2019-05-14T05:31:38.277Z,3.93
2019-05-14T05:34:08.974Z,4.23
2019-05-14T05:36:38.007Z,3.80
2019-05-14T05:39:08.649Z,4.10
2019-05-14T05:41:38.519Z,3.17
2019-05-14T05:44:08.206Z,3.70
2019-05-14T05:46:38.868Z,3.57
2019-05-14T05:49:08.080Z,3.93
2019-05-14T05:51:39.051Z,3.67
2019-05-14T05:54:09.077Z,3.70
2019-05-14T05:56:38.766Z,3.23
2019-05-14T05:59:09.468Z,3.80
2019-05-14T06:01:44.855Z,3.60
2019-05-14T06:04:08.767Z,3.50
2019-05-14T06:06:39.031Z,3.60
2019-05-14T06:09:08.920Z,3.40
2019-05-14T06:11:38.075Z,3.47
2019-05-14T06:14:08.356Z,3.70
2019-05-14T06:16:38.508Z,3.60
2019-05-14T06:19:08.187Z,3.23
2019-05-14T06:21:39.602Z,3.20
2019-05-14T06:24:09.085Z,3.40
2019-05-14T06:26:38.441Z,3.20
2019-05-14T06:29:08.427Z,3.40
2019-05-14T06:31:38.733Z,3.60
2019-05-14T06:34:09.589Z,4.10
2019-05-14T06:36:39.560Z,3.40
2019-05-14T06:39:09.212Z,4.53
2019-05-14T06:41:42.620Z,3.73
2019-05-14T06:44:09.203Z,4.17
2019-05-14T06:46:39.105Z,4.03
2019-05-14T06:49:28.966Z,4.20
2019-05-14T06:51:59.269Z,4.50
2019-05-14T06:54:29.251Z,4.87
2019-05-14T06:56:58.309Z,4.83
2019-05-14T06:59:28.810Z,5.03
2019-05-14T07:01:57.997Z,4.93
2019-05-14T07:04:28.838Z,4.77
2019-05-14T07:06:59.135Z,5.00
2019-05-14T07:09:28.912Z,4.60
2019-05-14T07:11:58.458Z,4.93
2019-05-14T07:14:28.266Z,5.23
2019-05-14T07:16:58.796Z,5.10
2019-05-14T07:19:29.382Z,4.20
2019-05-14T07:21:58.425Z,5.10
2019-05-14T07:24:28.333Z,5.07
2019-05-14T07:26:58.715Z,5.30
2019-05-14T07:29:29.356Z,4.90
2019-05-14T07:31:58.307Z,4.80
2019-05-14T07:34:28.231Z,5.40
2019-05-14T07:36:58.653Z,5.40
2019-05-14T07:39:29.109Z,5.20
2019-05-14T07:41:59.061Z,5.03
2019-05-14T07:44:29.714Z,5.53
2019-05-14T07:46:58.971Z,5.27
2019-05-14T07:49:29.027Z,4.97
2019-05-14T07:51:58.705Z,5.40
2019-05-14T07:54:28.318Z,5.53
2019-05-14T07:56:58.841Z,5.60
2019-05-14T07:59:28.703Z,5.90
2019-05-14T08:01:58.579Z,5.50
2019-05-14T08:04:29.021Z,5.23
2019-05-14T08:06:58.302Z,5.27
2019-05-14T08:09:28.283Z,5.23
2019-05-14T08:11:58.750Z,6.07
2019-05-14T08:14:29.402Z,5.13
2019-05-14T08:16:59.510Z,5.30
2019-05-14T08:19:31.415Z,5.20
2019-05-14T08:21:58.678Z,5.40
2019-05-14T08:24:30.052Z,5.60
2019-05-14T08:26:57.969Z,5.30
2019-05-14T08:29:28.669Z,4.67
2019-05-14T08:31:58.205Z,4.50
2019-05-14T08:34:29.424Z,4.13
2019-05-14T08:36:58.856Z,3.90
2019-05-14T08:39:28.597Z,4.50
2019-05-14T08:42:03.112Z,4.43
2019-05-14T08:44:29.418Z,4.93
2019-05-14T08:47:09.602Z,4.50
2019-05-14T08:49:45.366Z,3.90
2019-05-14T08:52:08.779Z,3.83
2019-05-14T08:54:39.070Z,4.40
2019-05-14T08:57:09.773Z,4.07
2019-05-14T08:59:39.659Z,4.40
2019-05-14T09:02:10.715Z,4.00
2019-05-14T09:04:42.828Z,3.83
2019-05-14T09:07:09.530Z,3.83
2019-05-14T09:09:38.396Z,4.10
2019-05-14T09:12:12.158Z,3.73
2019-05-14T09:14:38.839Z,3.87
2019-05-14T09:17:09.713Z,3.20
2019-05-14T09:19:40.821Z,3.10
2019-05-14T09:22:09.815Z,3.10
2019-05-14T09:24:38.993Z,2.90
2019-05-14T09:27:08.437Z,3.00
2019-05-14T09:29:39.483Z,3.27
2019-05-14T09:32:09.561Z,3.13
2019-05-14T09:34:39.335Z,3.20
2019-05-14T09:37:08.606Z,3.07
2019-05-14T09:39:38.548Z,2.90
2019-05-14T09:42:08.161Z,3.17
2019-05-14T09:44:38.713Z,3.10
2019-05-14T09:47:08.599Z,3.50
2019-05-14T09:49:38.902Z,3.80
2019-05-14T09:52:09.099Z,3.20
2019-05-14T09:54:41.591Z,3.07
2019-05-14T09:57:08.435Z,2.83
2019-05-14T09:59:38.445Z,2.90
2019-05-14T10:02:09.223Z,3.17
2019-05-14T10:04:39.115Z,3.10
2019-05-14T10:07:08.872Z,3.17
2019-05-14T10:09:38.962Z,2.77
2019-05-14T10:12:08.909Z,2.50
2019-05-14T10:14:39.342Z,2.70
2019-05-14T10:17:07.860Z,2.53
2019-05-14T10:19:39.139Z,2.70
2019-05-14T10:22:08.340Z,2.33
2019-05-14T10:24:38.559Z,2.57
2019-05-14T10:27:09.046Z,2.63
2019-05-14T10:29:39.145Z,2.40
2019-05-14T10:32:08.706Z,2.37
2019-05-14T10:34:37.548Z,2.40
2019-05-14T10:37:08.381Z,2.40
2019-05-14T10:39:38.891Z,2.30
2019-05-14T10:42:08.694Z,2.40
2019-05-14T10:44:38.696Z,2.57
2019-05-14T10:47:09.186Z,2.47
2019-05-14T10:49:38.631Z,2.60
2019-05-14T10:52:08.214Z,2.60
2019-05-14T10:54:40.214Z,2.40
2019-05-14T10:57:09.658Z,2.70
2019-05-14T10:59:37.799Z,2.73
2019-05-14T11:02:05.754Z,2.53
2019-05-14T11:04:34.675Z,2.60
2019-05-14T11:07:03.285Z,2.97
2019-05-14T11:09:31.717Z,2.37
2019-05-14T11:12:00.179Z,2.50
2019-05-14T11:14:31.707Z,2.57
2019-05-14T11:16:59.267Z,2.40
2019-05-14T11:19:28.214Z,2.60
2019-05-14T11:21:58.042Z,2.57
2019-05-14T11:24:29.365Z,2.23
2019-05-14T11:26:59.104Z,2.63
2019-05-14T11:29:29.497Z,2.60
2019-05-14T11:31:57.629Z,2.50
2019-05-14T11:34:28.551Z,2.57
2019-05-14T11:36:58.731Z,2.80
2019-05-14T11:39:28.640Z,2.33
2019-05-14T11:41:58.960Z,2.93
2019-05-14T11:44:28.583Z,2.37
2019-05-14T11:46:59.246Z,2.50
2019-05-14T11:49:27.152Z,2.30
2019-05-14T11:52:04.291Z,2.10
2019-05-14T11:54:25.900Z,2.50
2019-05-14T11:56:54.384Z,2.63
2019-05-14T11:59:22.973Z,2.80
2019-05-14T12:01:54.871Z,2.77
2019-05-14T12:04:21.588Z,2.50
2019-05-14T12:06:50.017Z,2.13
2019-05-14T12:09:18.922Z,2.40
2019-05-14T12:11:47.578Z,2.60
2019-05-14T12:14:16.020Z,2.67
2019-05-14T12:16:44.522Z,2.50
2019-05-14T12:19:13.009Z,2.50
2019-05-14T12:21:58.483Z,2.40
2019-05-14T12:24:13.994Z,2.60
2019-05-14T12:26:42.103Z,2.43
2019-05-14T12:29:10.548Z,2.43
2019-05-14T12:31:39.001Z,2.10
2019-05-14T12:34:07.488Z,2.30
2019-05-14T12:36:38.737Z,2.00
2019-05-14T12:39:09.587Z,2.37
2019-05-14T12:41:38.699Z,2.30
2019-05-14T12:44:09.269Z,2.70
2019-05-14T12:46:37.513Z,2.60
2019-05-14T12:49:06.025Z,2.60
2019-05-14T12:51:38.218Z,2.03
2019-05-14T12:54:04.828Z,2.43
2019-05-14T12:56:33.303Z,2.40
2019-05-14T12:59:01.737Z,2.40
2019-05-14T13:01:30.324Z,2.30
2019-05-14T13:03:59.321Z,2.20
2019-05-14T13:06:29.396Z,2.37
2019-05-14T13:08:58.645Z,2.10
2019-05-14T13:11:27.283Z,2.20
2019-05-14T13:13:58.328Z,2.10
2019-05-14T13:16:28.336Z,2.10
2019-05-14T13:18:56.315Z,2.10
2019-05-14T13:21:24.762Z,2.13
2019-05-14T13:23:53.179Z,1.83
2019-05-14T13:26:21.608Z,2.00
2019-05-14T13:28:51.047Z,2.03
2019-05-14T13:31:19.770Z,2.10
2019-05-14T13:33:48.929Z,2.03
2019-05-14T13:36:20.538Z,2.13
2019-05-14T13:38:49.099Z,1.97
2019-05-14T13:41:19.347Z,2.07
2019-05-14T13:43:50.474Z,2.07
2019-05-14T13:46:18.937Z,2.10
2019-05-14T13:48:49.834Z,2.47
2019-05-14T13:51:19.530Z,1.93
2019-05-14T13:53:49.929Z,2.20
2019-05-14T13:56:18.867Z,2.57
2019-05-14T13:58:48.967Z,2.20
2019-05-14T14:01:19.402Z,2.30
2019-05-14T14:04:02.591Z,2.20
2019-05-14T14:06:20.740Z,2.10
2019-05-14T14:08:48.904Z,2.13
2019-05-14T14:11:19.398Z,2.20
2019-05-14T14:13:48.945Z,2.00
2019-05-14T14:16:19.751Z,1.67
2019-05-14T14:18:50.023Z,2.10
2019-05-14T14:21:20.210Z,2.13
2019-05-14T14:23:50.857Z,2.10
2019-05-14T14:26:19.424Z,2.37
2019-05-14T14:28:49.277Z,2.00
2019-05-14T14:31:18.879Z,2.20
2019-05-14T14:33:48.675Z,1.80
2019-05-14T14:36:19.867Z,2.10
2019-05-14T14:38:49.574Z,2.10
2019-05-14T14:41:19.268Z,2.20
2019-05-14T14:43:53.234Z,2.30
2019-05-14T14:46:19.607Z,2.40
2019-05-14T14:48:49.445Z,2.40
2019-05-14T14:51:19.395Z,2.30
2019-05-14T14:53:58.974Z,2.00
2019-05-14T14:56:18.894Z,1.90
2019-05-14T14:58:49.291Z,2.20
2019-05-14T15:01:19.396Z,2.43
2019-05-14T15:03:49.771Z,1.87
2019-05-14T15:06:18.652Z,2.20
2019-05-14T15:08:49.797Z,3.27
2019-05-14T15:11:17.420Z,2.50
2019-05-14T15:13:48.093Z,2.60
2019-05-14T15:16:16.302Z,1.80
2019-05-14T15:18:44.977Z,2.10
2019-05-14T15:21:13.416Z,2.00
2019-05-14T15:23:45.148Z,2.10
2019-05-14T15:26:12.372Z,2.10
2019-05-14T15:28:40.846Z,2.00
2019-05-14T15:31:09.329Z,1.83
2019-05-14T15:33:37.891Z,2.30
2019-05-14T15:36:08.975Z,2.17
2019-05-14T15:38:39.306Z,2.30
2019-05-14T15:41:12.698Z,2.10
2019-05-14T15:43:39.523Z,1.90
2019-05-14T15:46:08.723Z,1.77
2019-05-14T15:48:39.404Z,1.90
2019-05-14T15:51:14.282Z,1.70
2019-05-14T15:53:38.733Z,2.00
2019-05-14T15:56:08.138Z,2.13
2019-05-14T15:58:38.971Z,1.90
2019-05-14T16:01:10.034Z,1.83
2019-05-14T16:03:41.323Z,1.93
2019-05-14T16:06:08.947Z,1.90
2019-05-14T16:08:40.191Z,1.87
2019-05-14T16:11:11.540Z,2.60
2019-05-14T16:13:39.828Z,1.80
2019-05-14T16:16:10.508Z,1.70
2019-05-14T16:18:38.696Z,1.83
2019-05-14T16:21:10.237Z,1.70
2019-05-14T16:23:38.798Z,1.90
2019-05-14T16:26:08.906Z,1.87
2019-05-14T16:28:39.389Z,1.70
2019-05-14T16:31:08.539Z,1.93
2019-05-14T16:33:40.349Z,2.00
2019-05-14T16:36:08.916Z,2.17
2019-05-14T16:38:39.503Z,2.00
2019-05-14T16:41:08.194Z,2.00
2019-05-14T16:43:39.487Z,2.10
2019-05-14T16:46:09.681Z,1.90
2019-05-14T16:48:39.409Z,1.70
2019-05-14T16:51:08.881Z,1.80
2019-05-14T16:53:38.059Z,1.93
2019-05-14T16:56:08.228Z,2.00
2019-05-14T16:58:38.711Z,1.60
2019-05-14T17:01:09.794Z,1.97
2019-05-14T17:03:39.771Z,1.97
2019-05-14T17:06:07.754Z,1.87
2019-05-14T17:08:36.199Z,1.80
2019-05-14T17:11:04.769Z,2.27
2019-05-14T17:13:32.887Z,1.90
2019-05-14T17:16:01.352Z,1.80
2019-05-14T17:18:29.823Z,1.80
2019-05-14T17:20:59.452Z,1.67
2019-05-14T17:23:28.484Z,1.87
2019-05-14T17:25:58.004Z,1.80
2019-05-14T17:28:28.684Z,1.90
2019-05-14T17:30:56.792Z,2.20
2019-05-14T17:33:25.249Z,2.10
2019-05-14T17:35:53.884Z,1.70
2019-05-14T17:38:22.499Z,1.97
2019-05-14T17:40:51.058Z,1.87
2019-05-14T17:43:22.869Z,1.90
2019-05-14T17:45:49.800Z,1.90
2019-05-14T17:48:18.407Z,1.80
2019-05-14T17:50:48.481Z,1.50
2019-05-14T17:53:18.312Z,1.80
2019-05-14T17:55:50.550Z,1.53
2019-05-14T17:58:18.872Z,1.83
2019-05-14T18:00:47.541Z,1.87
2019-05-14T18:03:18.278Z,2.00
2019-05-14T18:05:46.224Z,2.10
2019-05-14T18:08:14.736Z,2.20
2019-05-14T18:10:43.432Z,2.20
2019-05-14T18:13:12.115Z,1.90
2019-05-14T18:15:40.596Z,1.77
2019-05-14T18:18:09.475Z,1.90
2019-05-14T18:20:39.496Z,1.90
2019-05-14T18:25:38.849Z,1.90
2019-05-14T18:28:09.326Z,1.90
2019-05-14T18:30:38.627Z,1.70
2019-05-14T18:33:08.007Z,2.07
2019-05-14T18:35:43.776Z,2.30
2019-05-14T18:38:08.290Z,1.90
2019-05-14T18:40:37.098Z,2.00
2019-05-14T18:43:08.445Z,1.80
2019-05-14T18:45:36.151Z,1.90
2019-05-14T18:48:04.684Z,1.90
2019-05-14T18:50:33.225Z,1.97
2019-05-14T18:53:01.698Z,1.90
2019-05-14T18:55:30.225Z,1.70
2019-05-14T18:57:59.348Z,1.73
2019-05-14T19:00:29.426Z,2.00
2019-05-14T19:02:58.350Z,1.87
2019-05-14T19:05:29.213Z,1.80
2019-05-14T19:07:59.131Z,2.00
2019-05-14T19:10:28.047Z,2.10
2019-05-14T19:12:58.793Z,1.80
2019-05-14T19:15:26.959Z,1.90
2019-05-14T19:17:57.788Z,2.70
2019-05-14T19:20:25.646Z,2.30
2019-05-14T19:22:54.122Z,2.10
2019-05-14T19:25:22.712Z,1.93
2019-05-14T19:27:51.221Z,2.60
2019-05-14T19:30:19.733Z,1.90
2019-05-14T19:32:48.631Z,3.43
2019-05-14T19:35:19.195Z,1.93
2019-05-14T19:37:48.694Z,2.60
2019-05-14T19:40:18.974Z,2.50
2019-05-14T19:42:48.559Z,2.33
2019-05-14T19:45:18.289Z,2.00
2019-05-14T19:47:49.124Z,2.07
2019-05-14T19:50:18.774Z,2.03
2019-05-14T19:52:48.665Z,2.10
2019-05-14T19:55:18.918Z,2.30
2019-05-14T19:57:49.032Z,2.20
2019-05-14T20:00:25.571Z,2.37
2019-05-14T20:02:54.116Z,2.60
2019-05-14T20:05:22.641Z,2.67
2019-05-14T20:07:51.295Z,2.50
2019-05-14T20:10:19.802Z,2.10
2019-05-14T20:12:48.348Z,2.63
2019-05-14T20:15:16.947Z,2.30
2019-05-14T20:17:45.570Z,2.10
2019-05-14T20:20:14.328Z,1.97
2019-05-14T20:22:42.906Z,2.20
2019-05-14T20:25:11.690Z,2.03
2019-05-14T20:27:40.140Z,2.03
2019-05-14T20:30:12.316Z,2.13
2019-05-14T20:32:44.160Z,2.30
2019-05-14T20:35:11.399Z,2.20
2019-05-14T20:37:39.855Z,2.63
2019-05-14T20:40:09.050Z,2.40
2019-05-14T20:42:39.251Z,2.50
2019-05-14T20:45:08.665Z,2.73
2019-05-14T20:47:39.204Z,2.83
2019-05-14T20:50:09.061Z,2.43
2019-05-14T20:52:37.642Z,2.73
2019-05-14T20:55:09.559Z,2.70
2019-05-14T20:57:38.504Z,3.37
2019-05-14T21:00:11.370Z,4.10
2019-05-14T21:02:39.796Z,2.77
2019-05-14T21:05:13.527Z,3.03
2019-05-14T21:07:39.241Z,2.97
2019-05-14T21:10:08.509Z,2.50
2019-05-14T21:12:39.273Z,2.77
2019-05-14T21:15:09.158Z,2.80
2019-05-14T21:17:38.112Z,2.60
2019-05-14T21:20:09.084Z,2.53
2019-05-14T21:22:39.726Z,2.70
2019-05-14T21:25:11.284Z,2.50
2019-05-14T21:27:47.602Z,2.60
2019-05-14T21:30:09.340Z,2.60
2019-05-14T21:32:39.179Z,2.40
2019-05-14T21:35:08.273Z,2.60
2019-05-14T21:37:38.986Z,2.57
2019-05-14T21:40:09.186Z,2.77
2019-05-14T21:42:38.591Z,2.27
2019-05-14T21:45:09.850Z,2.17
2019-05-14T21:47:38.999Z,2.47
2019-05-14T21:50:09.173Z,2.40
2019-05-14T21:52:39.313Z,2.50
2019-05-14T21:55:08.825Z,2.40
2019-05-14T21:57:38.285Z,2.50
2019-05-14T22:00:23.285Z,2.57
2019-05-14T22:02:51.731Z,2.40
2019-05-14T22:05:20.240Z,2.40
2019-05-14T22:07:48.715Z,2.40
2019-05-14T22:10:19.074Z,2.77
2019-05-14T22:12:48.756Z,2.47
2019-05-14T22:15:18.387Z,2.43
2019-05-14T22:17:49.160Z,2.43
2019-05-14T22:20:19.222Z,2.50
2019-05-14T22:22:48.405Z,3.00
2019-05-14T22:25:19.058Z,2.70
2019-05-14T22:27:48.341Z,2.70
2019-05-14T22:30:18.348Z,2.50
2019-05-14T22:32:46.915Z,2.50
2019-05-14T22:35:15.398Z,3.00
2019-05-14T22:37:43.927Z,2.50
2019-05-14T22:40:12.674Z,2.40
2019-05-14T22:42:41.248Z,2.40
2019-05-14T22:45:10.192Z,2.30
2019-05-14T22:47:40.497Z,2.93
2019-05-14T22:50:09.551Z,2.60
2019-05-14T22:52:38.490Z,2.67
2019-05-14T22:55:07.951Z,2.90
2019-05-14T22:57:38.939Z,2.90
2019-05-14T23:00:08.713Z,2.80
2019-05-14T23:02:38.151Z,2.50
2019-05-14T23:05:10.993Z,2.70
2019-05-14T23:07:39.534Z,3.17
2019-05-14T23:10:08.940Z,2.97
2019-05-14T23:12:38.490Z,3.60
2019-05-14T23:15:07.659Z,3.30
2019-05-14T23:17:36.106Z,2.80
2019-05-14T23:20:08.880Z,3.03
2019-05-14T23:22:38.844Z,3.13
2019-05-14T23:25:09.166Z,3.10
2019-05-14T23:27:38.994Z,3.30
2019-05-14T23:30:08.739Z,2.90
2019-05-14T23:32:38.516Z,3.67
2019-05-14T23:35:07.797Z,3.00
2019-05-14T23:37:36.418Z,3.00
2019-05-14T23:40:08.503Z,3.00
2019-05-14T23:42:39.024Z,3.80
2019-05-14T23:45:08.166Z,3.00
2019-05-14T23:47:38.288Z,3.27
2019-05-14T23:50:08.159Z,2.60
2019-05-14T23:52:38.571Z,2.50
2019-05-14T23:55:08.571Z,2.40
2019-05-14T23:57:37.326Z,2.40
